sensor_id;sensor_type;location;lat;lon;timestamp;temperature;humidity
16625;DHT22;8426;48.496;9.098;2023-07-29T00:03:15;15.80;99.90
16625;DHT22;8426;48.496;9.098;2023-07-29T00:08:18;15.80;99.90
16625;DHT22;8426;48.496;9.098;2023-07-29T00:13:23;15.80;99.90
16625;DHT22;8426;48.496;9.098;2023-07-29T00:18:27;15.80;99.90
16625;DHT22;8426;48.496;9.098;2023-07-29T00:23:30;15.80;99.90
16625;DHT22;8426;48.496;9.098;2023-07-29T00:28:35;15.80;99.90
16625;DHT22;8426;48.496;9.098;2023-07-29T00:33:38;15.90;99.90
16625;DHT22;8426;48.496;9.098;2023-07-29T00:38:41;15.90;99.90
16625;DHT22;8426;48.496;9.098;2023-07-29T00:43:46;15.90;99.90
16625;DHT22;8426;48.496;9.098;2023-07-29T00:48:49;15.90;99.90
16625;DHT22;8426;48.496;9.098;2023-07-29T00:53:52;16.00;99.90
16625;DHT22;8426;48.496;9.098;2023-07-29T00:58:57;16.00;99.90
16625;DHT22;8426;48.496;9.098;2023-07-29T01:04:04;16.00;99.90
16625;DHT22;8426;48.496;9.098;2023-07-29T01:09:10;16.00;99.90
16625;DHT22;8426;48.496;9.098;2023-07-29T01:14:25;16.00;99.90
16625;DHT22;8426;48.496;9.098;2023-07-29T01:19:43;16.00;99.90
16625;DHT22;8426;48.496;9.098;2023-07-29T01:24:49;16.00;99.90
16625;DHT22;8426;48.496;9.098;2023-07-29T01:29:53;16.10;99.90
16625;DHT22;8426;48.496;9.098;2023-07-29T01:35:03;16.10;99.90
16625;DHT22;8426;48.496;9.098;2023-07-29T01:40:09;16.00;99.90
16625;DHT22;8426;48.496;9.098;2023-07-29T01:45:14;16.10;99.90
16625;DHT22;8426;48.496;9.098;2023-07-29T01:50:17;16.10;99.90
16625;DHT22;8426;48.496;9.098;2023-07-29T01:55:22;16.00;99.90
16625;DHT22;8426;48.496;9.098;2023-07-29T02:00:25;15.90;99.90
16625;DHT22;8426;48.496;9.098;2023-07-29T02:05:28;15.70;99.90
16625;DHT22;8426;48.496;9.098;2023-07-29T02:10:33;15.70;99.90
16625;DHT22;8426;48.496;9.098;2023-07-29T02:15:37;15.50;99.90
16625;DHT22;8426;48.496;9.098;2023-07-29T02:20:40;15.40;99.90
16625;DHT22;8426;48.496;9.098;2023-07-29T02:25:52;15.30;99.90
16625;DHT22;8426;48.496;9.098;2023-07-29T02:31:12;15.30;99.90
16625;DHT22;8426;48.496;9.098;2023-07-29T02:36:16;15.30;99.90
16625;DHT22;8426;48.496;9.098;2023-07-29T02:41:21;15.20;99.90
16625;DHT22;8426;48.496;9.098;2023-07-29T02:46:24;15.20;99.90
16625;DHT22;8426;48.496;9.098;2023-07-29T02:51:28;15.20;99.90
16625;DHT22;8426;48.496;9.098;2023-07-29T02:56:32;15.20;99.90
16625;DHT22;8426;48.496;9.098;2023-07-29T03:01:37;15.20;99.90
16625;DHT22;8426;48.496;9.098;2023-07-29T03:06:40;15.40;99.90
16625;DHT22;8426;48.496;9.098;2023-07-29T03:11:46;15.40;99.90
16625;DHT22;8426;48.496;9.098;2023-07-29T03:16:49;15.50;99.90
16625;DHT22;8426;48.496;9.098;2023-07-29T03:21:52;15.50;99.90
16625;DHT22;8426;48.496;9.098;2023-07-29T03:26:58;15.40;99.90
16625;DHT22;8426;48.496;9.098;2023-07-29T05:41:26;16.70;99.90
16625;DHT22;8426;48.496;9.098;2023-07-29T05:46:30;17.00;99.90
16625;DHT22;8426;48.496;9.098;2023-07-29T05:56:34;17.80;99.90
16625;DHT22;8426;48.496;9.098;2023-07-29T06:01:39;18.20;99.90
16625;DHT22;8426;48.496;9.098;2023-07-29T06:06:42;19.00;99.90
16625;DHT22;8426;48.496;9.098;2023-07-29T06:11:47;20.30;99.90
16625;DHT22;8426;48.496;9.098;2023-07-29T06:37:59;19.30;99.90
16625;DHT22;8426;48.496;9.098;2023-07-29T06:43:03;19.20;99.90
16625;DHT22;8426;48.496;9.098;2023-07-29T07:27:56;18.00;99.90
16625;DHT22;8426;48.496;9.098;2023-07-29T07:32:59;18.40;99.90
16625;DHT22;8426;48.496;9.098;2023-07-29T07:38:02;18.70;99.90
16625;DHT22;8426;48.496;9.098;2023-07-29T07:43:07;19.20;99.90
16625;DHT22;8426;48.496;9.098;2023-07-29T07:48:10;19.80;99.90
16625;DHT22;8426;48.496;9.098;2023-07-29T07:53:15;19.90;99.90
16625;DHT22;8426;48.496;9.098;2023-07-29T07:58:20;20.00;99.90
16625;DHT22;8426;48.496;9.098;2023-07-29T08:03:23;19.90;99.90
16625;DHT22;8426;48.496;9.098;2023-07-29T08:08:27;19.90;99.90
16625;DHT22;8426;48.496;9.098;2023-07-29T08:13:32;19.90;99.90
16625;DHT22;8426;48.496;9.098;2023-07-29T08:18:35;19.80;99.90
16625;DHT22;8426;48.496;9.098;2023-07-29T08:23:39;19.60;99.90
16625;DHT22;8426;48.496;9.098;2023-07-29T08:28:43;19.60;99.90
16625;DHT22;8426;48.496;9.098;2023-07-29T08:33:47;19.40;99.90
16625;DHT22;8426;48.496;9.098;2023-07-29T08:48:10;19.10;99.90
16625;DHT22;8426;48.496;9.098;2023-07-29T08:53:15;19.30;99.90
16625;DHT22;8426;48.496;9.098;2023-07-29T08:58:19;20.20;99.90
16625;DHT22;8426;48.496;9.098;2023-07-29T09:03:24;23.90;99.90
16625;DHT22;8426;48.496;9.098;2023-07-29T09:08:28;27.50;99.90
16625;DHT22;8426;48.496;9.098;2023-07-29T09:13:31;28.60;99.90
16625;DHT22;8426;48.496;9.098;2023-07-29T09:18:36;29.60;99.90
16625;DHT22;8426;48.496;9.098;2023-07-29T09:23:40;30.50;99.90
16625;DHT22;8426;48.496;9.098;2023-07-29T09:28:44;31.30;99.90
16625;DHT22;8426;48.496;9.098;2023-07-29T09:33:57;31.10;99.90
16625;DHT22;8426;48.496;9.098;2023-07-29T09:39:01;30.50;99.90
16625;DHT22;8426;48.496;9.098;2023-07-29T09:44:05;31.30;99.90
16625;DHT22;8426;48.496;9.098;2023-07-29T09:49:10;31.90;99.90
16625;DHT22;8426;48.496;9.098;2023-07-29T09:54:16;32.10;99.90
16625;DHT22;8426;48.496;9.098;2023-07-29T09:59:23;31.90;99.90
16625;DHT22;8426;48.496;9.098;2023-07-29T10:04:29;30.50;99.90
16625;DHT22;8426;48.496;9.098;2023-07-29T10:09:33;30.60;99.90
16625;DHT22;8426;48.496;9.098;2023-07-29T10:14:38;30.00;99.90
16625;DHT22;8426;48.496;9.098;2023-07-29T10:19:44;28.90;99.90
16625;DHT22;8426;48.496;9.098;2023-07-29T10:24:49;28.60;99.90
16625;DHT22;8426;48.496;9.098;2023-07-29T10:29:55;28.30;99.90
16625;DHT22;8426;48.496;9.098;2023-07-29T10:35:13;28.30;99.90
16625;DHT22;8426;48.496;9.098;2023-07-29T10:40:17;27.80;99.90
16625;DHT22;8426;48.496;9.098;2023-07-29T10:45:22;27.20;99.90
16625;DHT22;8426;48.496;9.098;2023-07-29T10:50:27;27.40;99.90
16625;DHT22;8426;48.496;9.098;2023-07-29T10:55:32;26.90;99.90
16625;DHT22;8426;48.496;9.098;2023-07-29T11:00:36;26.20;99.90
16625;DHT22;8426;48.496;9.098;2023-07-29T11:05:48;26.30;99.90
16625;DHT22;8426;48.496;9.098;2023-07-29T11:11:08;26.80;99.90
16625;DHT22;8426;48.496;9.098;2023-07-29T11:16:16;27.30;99.90
16625;DHT22;8426;48.496;9.098;2023-07-29T11:21:22;26.70;99.90
16625;DHT22;8426;48.496;9.098;2023-07-29T11:26:27;26.20;99.90
16625;DHT22;8426;48.496;9.098;2023-07-29T11:31:39;26.00;99.90
16625;DHT22;8426;48.496;9.098;2023-07-29T11:36:45;26.10;99.90
16625;DHT22;8426;48.496;9.098;2023-07-29T11:41:48;25.60;99.90
16625;DHT22;8426;48.496;9.098;2023-07-29T11:46:52;25.70;99.90
16625;DHT22;8426;48.496;9.098;2023-07-29T11:51:58;25.60;99.90
16625;DHT22;8426;48.496;9.098;2023-07-29T11:57:01;25.60;99.90
16625;DHT22;8426;48.496;9.098;2023-07-29T12:02:09;26.10;99.90
16625;DHT22;8426;48.496;9.098;2023-07-29T12:07:16;26.00;99.90
16625;DHT22;8426;48.496;9.098;2023-07-29T12:12:22;25.90;99.90
16625;DHT22;8426;48.496;9.098;2023-07-29T12:17:26;26.90;99.90
16625;DHT22;8426;48.496;9.098;2023-07-29T12:22:31;27.70;99.90
16625;DHT22;8426;48.496;9.098;2023-07-29T12:27:34;27.20;99.90
16625;DHT22;8426;48.496;9.098;2023-07-29T12:32:43;26.60;99.90
16625;DHT22;8426;48.496;9.098;2023-07-29T12:37:58;26.60;99.90
16625;DHT22;8426;48.496;9.098;2023-07-29T12:43:04;26.10;99.90
16625;DHT22;8426;48.496;9.098;2023-07-29T12:48:07;26.30;99.90
16625;DHT22;8426;48.496;9.098;2023-07-29T12:53:12;26.50;99.90
16625;DHT22;8426;48.496;9.098;2023-07-29T12:58:16;27.00;99.90
16625;DHT22;8426;48.496;9.098;2023-07-29T13:03:19;27.20;99.90
16625;DHT22;8426;48.496;9.098;2023-07-29T13:08:23;26.90;99.90
16625;DHT22;8426;48.496;9.098;2023-07-29T13:13:28;26.90;99.90
16625;DHT22;8426;48.496;9.098;2023-07-29T13:18:32;27.00;99.90
16625;DHT22;8426;48.496;9.098;2023-07-29T13:23:37;27.00;99.90
16625;DHT22;8426;48.496;9.098;2023-07-29T13:28:40;27.00;99.90
16625;DHT22;8426;48.496;9.098;2023-07-29T13:33:43;27.40;99.90
16625;DHT22;8426;48.496;9.098;2023-07-29T13:38:48;27.30;99.90
16625;DHT22;8426;48.496;9.098;2023-07-29T13:43:51;26.60;99.90
16625;DHT22;8426;48.496;9.098;2023-07-29T13:48:55;26.80;99.90
16625;DHT22;8426;48.496;9.098;2023-07-29T13:53:59;26.60;99.90
16625;DHT22;8426;48.496;9.098;2023-07-29T13:59:03;26.60;99.90
16625;DHT22;8426;48.496;9.098;2023-07-29T14:04:06;26.30;99.90
16625;DHT22;8426;48.496;9.098;2023-07-29T14:09:11;26.50;99.90
16625;DHT22;8426;48.496;9.098;2023-07-29T14:14:15;26.20;99.90
16625;DHT22;8426;48.496;9.098;2023-07-29T14:19:20;26.30;99.90
16625;DHT22;8426;48.496;9.098;2023-07-29T14:24:26;26.60;99.90
16625;DHT22;8426;48.496;9.098;2023-07-29T14:29:29;27.00;99.90
16625;DHT22;8426;48.496;9.098;2023-07-29T14:34:32;26.90;99.90
16625;DHT22;8426;48.496;9.098;2023-07-29T14:39:37;26.60;99.90
16625;DHT22;8426;48.496;9.098;2023-07-29T14:44:40;26.90;99.90
16625;DHT22;8426;48.496;9.098;2023-07-29T14:49:44;27.10;99.90
16625;DHT22;8426;48.496;9.098;2023-07-29T14:54:48;26.80;99.90
16625;DHT22;8426;48.496;9.098;2023-07-29T14:59:52;26.40;99.90
16625;DHT22;8426;48.496;9.098;2023-07-29T15:04:55;26.00;99.90
16625;DHT22;8426;48.496;9.098;2023-07-29T15:10:00;25.50;99.90
16625;DHT22;8426;48.496;9.098;2023-07-29T15:15:04;25.10;99.90
16625;DHT22;8426;48.496;9.098;2023-07-29T15:20:08;25.10;99.90
16625;DHT22;8426;48.496;9.098;2023-07-29T15:25:13;25.30;99.90
16625;DHT22;8426;48.496;9.098;2023-07-29T15:30:16;25.40;99.90
16625;DHT22;8426;48.496;9.098;2023-07-29T15:35:22;25.60;99.90
16625;DHT22;8426;48.496;9.098;2023-07-29T15:40:26;25.70;99.90
16625;DHT22;8426;48.496;9.098;2023-07-29T15:45:30;25.60;99.90
16625;DHT22;8426;48.496;9.098;2023-07-29T15:50:33;25.70;99.90
16625;DHT22;8426;48.496;9.098;2023-07-29T15:55:38;25.10;99.90
16625;DHT22;8426;48.496;9.098;2023-07-29T16:00:42;24.40;99.90
16625;DHT22;8426;48.496;9.098;2023-07-29T16:05:45;24.00;99.90
16625;DHT22;8426;48.496;9.098;2023-07-29T16:10:50;24.10;99.90
16625;DHT22;8426;48.496;9.098;2023-07-29T16:15:53;24.00;99.90
16625;DHT22;8426;48.496;9.098;2023-07-29T16:20:57;23.90;99.90
16625;DHT22;8426;48.496;9.098;2023-07-29T16:26:05;23.70;99.90
16625;DHT22;8426;48.496;9.098;2023-07-29T16:31:08;23.30;99.90
16625;DHT22;8426;48.496;9.098;2023-07-29T16:36:11;23.00;99.90
16625;DHT22;8426;48.496;9.098;2023-07-29T16:41:16;23.00;99.90
16625;DHT22;8426;48.496;9.098;2023-07-29T16:46:39;22.70;99.90
16625;DHT22;8426;48.496;9.098;2023-07-29T16:51:43;22.40;99.90
16625;DHT22;8426;48.496;9.098;2023-07-29T16:56:48;22.10;99.90
16625;DHT22;8426;48.496;9.098;2023-07-29T17:01:53;21.80;99.90
16625;DHT22;8426;48.496;9.098;2023-07-29T17:06:56;21.50;99.90
16625;DHT22;8426;48.496;9.098;2023-07-29T17:12:01;21.20;99.90
16625;DHT22;8426;48.496;9.098;2023-07-29T17:17:05;20.90;99.90
16625;DHT22;8426;48.496;9.098;2023-07-29T17:22:08;20.60;99.90
16625;DHT22;8426;48.496;9.098;2023-07-29T17:27:13;20.50;99.90
16625;DHT22;8426;48.496;9.098;2023-07-29T17:32:16;20.30;99.90
16625;DHT22;8426;48.496;9.098;2023-07-29T17:37:19;20.20;99.90
16625;DHT22;8426;48.496;9.098;2023-07-29T17:42:24;20.10;99.90
16625;DHT22;8426;48.496;9.098;2023-07-29T17:47:28;20.00;99.90
16625;DHT22;8426;48.496;9.098;2023-07-29T17:52:31;20.00;99.90
16625;DHT22;8426;48.496;9.098;2023-07-29T17:57:36;19.90;99.90
16625;DHT22;8426;48.496;9.098;2023-07-29T18:02:39;19.80;99.90
16625;DHT22;8426;48.496;9.098;2023-07-29T18:07:43;19.80;99.90
16625;DHT22;8426;48.496;9.098;2023-07-29T18:12:47;19.80;99.90
16625;DHT22;8426;48.496;9.098;2023-07-29T18:17:51;19.70;99.90
16625;DHT22;8426;48.496;9.098;2023-07-29T18:22:54;19.70;99.90
16625;DHT22;8426;48.496;9.098;2023-07-29T18:28:04;19.70;99.90
16625;DHT22;8426;48.496;9.098;2023-07-29T18:33:07;19.60;99.90
16625;DHT22;8426;48.496;9.098;2023-07-29T18:38:10;19.50;99.90
16625;DHT22;8426;48.496;9.098;2023-07-29T18:43:15;19.40;99.90
16625;DHT22;8426;48.496;9.098;2023-07-29T18:48:18;19.40;99.90
16625;DHT22;8426;48.496;9.098;2023-07-29T18:53:22;19.30;99.90
16625;DHT22;8426;48.496;9.098;2023-07-29T18:58:26;19.30;99.90
16625;DHT22;8426;48.496;9.098;2023-07-29T19:03:30;19.30;99.90
16625;DHT22;8426;48.496;9.098;2023-07-29T19:08:33;19.30;99.90
16625;DHT22;8426;48.496;9.098;2023-07-29T19:13:38;19.20;99.90
16625;DHT22;8426;48.496;9.098;2023-07-29T19:18:41;19.30;99.90
16625;DHT22;8426;48.496;9.098;2023-07-29T19:23:44;19.20;99.90
16625;DHT22;8426;48.496;9.098;2023-07-29T19:28:49;19.10;99.90
16625;DHT22;8426;48.496;9.098;2023-07-29T19:33:53;19.10;99.90
16625;DHT22;8426;48.496;9.098;2023-07-29T19:38:56;19.10;99.90
16625;DHT22;8426;48.496;9.098;2023-07-29T19:44:01;19.00;99.90
16625;DHT22;8426;48.496;9.098;2023-07-29T19:49:17;19.00;99.90
16625;DHT22;8426;48.496;9.098;2023-07-29T19:54:21;18.90;99.90
16625;DHT22;8426;48.496;9.098;2023-07-29T19:59:25;18.90;99.90
16625;DHT22;8426;48.496;9.098;2023-07-29T20:04:51;18.80;99.90
16625;DHT22;8426;48.496;9.098;2023-07-29T20:09:54;18.60;99.90
16625;DHT22;8426;48.496;9.098;2023-07-29T20:14:59;18.50;99.90
16625;DHT22;8426;48.496;9.098;2023-07-29T20:20:03;18.50;99.90
16625;DHT22;8426;48.496;9.098;2023-07-29T20:25:07;18.30;99.90
16625;DHT22;8426;48.496;9.098;2023-07-29T20:30:12;18.20;99.90
16625;DHT22;8426;48.496;9.098;2023-07-29T20:35:16;18.20;99.90
16625;DHT22;8426;48.496;9.098;2023-07-29T20:40:19;18.10;99.90
16625;DHT22;8426;48.496;9.098;2023-07-29T20:45:24;18.10;99.90
